Soaring Guidance
Issued by NWS Reno, NV

Home | Current Version | Previous Version | Text Only | Print | Product List | Glossary On
Versions: 1 2 3 4 5 6 7 8 9 10 11 12 13 14 15 16 17 18
000
UXUS97 KREV 041447
SRGREV

SOARING FORECAST
NATIONAL WEATHER SERVICE - RENO NV
700 AM PST SUN DEC 4 2016

THIS SOARING FORECAST IS FOR THE EASTERN SIERRA AND WESTERN NEVADA
WITH SPECIFIC INDICES FOR THE GREATER RENO AREA.

THIS FORECAST IS PREPARED DAILY BY 700 AM AND IS NOT UPDATED.

FOR CURRENT FLIGHT CONDITIONS...FORECASTS...AND ADVISORIES...ACCESS
YOUR LOCAL BRIEFING OUTLET OR FLIGHT SERVICE STATION.

*******************************************************************
FORECASTED LOCAL INDICES FOR RENO:        TODAY     YESTERDAY
FORECASTED MAX TEMP AT RENO (DEG F).....     57          51
FORECASTED TRIGGER TEMPERATURE (DEG F)..     61          56
   EXCEEDED YESTERDAY BY
FORECASTED MAXIMUM ALTITUDE (FT MSL)....   6900        6500
FORECASTED SOARING INDEX (FPM)..........    117         195
FORECASTED K-INDEX.........VALID 18Z....      6           1
FORECASTED K-INDEX.........VALID 00Z....      6           6
FORECASTED LIFTED INDEX....VALID 18Z....      4           7
FORECASTED LIFTED INDEX....VALID 00Z....      6           6

AFTERNOON WINDS ALOFT FORECAST
MSL (FT) WIND/TEMP
9000  2839/+02
10000 2841/+00
12000 2945/-03
14000 2948/-07
16000 2952/-11
18000 2962/-16
24000 2964/-27
30000 2969/-43
34000 2863/-54
39000 2990/-62

SLIDE MOUNTAIN DATA:
     DATE       TIME     TEMP  DEWPT   RH         WIND (MPH)
                        (F)   (F)           | DIR  SPEED GUST
2016-12-04    04:50      36    18     34    | 360    6   11
2016-12-04    04:30      36    18     36    | 017    6   10
2016-12-04    04:20      35    21     43    | 001    7   12
2016-12-04    04:00      36    20     40    | 011    5    8

RENO TAF FORECAST:
KRNO 041122Z 0412/0512 VRB03KT P6SM BKN200
     FM042000 29008KT P6SM FEW080 BKN200
     FM050400 VRB03KT P6SM SCT080 BKN150

CARSON CITY TAF FORECAST:
KCXP 041122Z 0412/0512 VRB03KT P6SM BKN200
     FM042000 25008KT P6SM FEW080 BKN200
     FM050400 29008KT P6SM SCT080 BKN150

OUTLOOK FOR THE RENO-CARSON CITY-MINDEN AREA:
.MONDAY...MOSTLY CLOUDY WITH A SLIGHT CHANCE OF SHOWERS IN THE
MORNING, THEN PARTLY CLOUDY IN THE AFTERNOON. HIGHS 45 TO 50.
WEST WINDS AROUND 10 MPH.

SUNRISE AND SUNSET
DECEMBER  4 2016......SUNRISE   704 AM PST   SUNSET   435 PM PST
DECEMBER  5 2016......SUNRISE   705 AM PST   SUNSET   435 PM PST


USA.gov is the U.S. government's official web portal to all federal, state and local government web resources and services.